createdAt,value
2018-09-14T00:00:41.192Z,80.83
2018-09-14T00:01:41.203Z,81.24
2018-09-14T00:02:41.244Z,81.35
2018-09-14T00:03:41.157Z,81.76
2018-09-14T00:04:41.153Z,80.63
2018-09-14T00:05:41.156Z,80.63
2018-09-14T00:06:41.154Z,81.56
2018-09-14T00:07:41.130Z,81.15
2018-09-14T00:08:41.104Z,81.35
2018-09-14T00:09:41.118Z,81.56
2018-09-14T00:10:41.118Z,81.24
2018-09-14T00:11:41.068Z,81.76
2018-09-14T00:12:41.081Z,82.57
2018-09-14T00:13:41.052Z,81.04
2018-09-14T00:14:41.040Z,81.86
2018-09-14T00:15:41.053Z,82.17
2018-09-14T00:16:41.037Z,81.59
2018-09-14T00:17:41.003Z,82.27
2018-09-14T00:18:40.996Z,83.13
2018-09-14T00:19:40.987Z,82.57
2018-09-14T00:20:40.983Z,82.48
2018-09-14T00:21:40.973Z,82.51
2018-09-14T00:22:41.038Z,82.51
2018-09-14T00:23:40.945Z,82.62
2018-09-14T00:24:40.924Z,82.31
2018-09-14T00:25:40.918Z,82.71
2018-09-14T00:26:40.920Z,82.92
2018-09-14T00:27:40.893Z,82.41
2018-09-14T00:28:40.928Z,82.51
2018-09-14T00:29:40.876Z,82.92
2018-09-14T00:30:40.861Z,82.62
2018-09-14T00:31:40.845Z,82.62
2018-09-14T00:32:40.845Z,82.51
2018-09-14T00:33:40.825Z,82.71
2018-09-14T00:34:40.858Z,82.62
2018-09-14T00:35:40.831Z,82.86
2018-09-14T00:36:40.795Z,82.51
2018-09-14T00:37:40.782Z,82.76
2018-09-14T00:38:40.791Z,82.31
2018-09-14T00:39:40.758Z,81.90
2018-09-14T00:40:40.816Z,83.17
2018-09-14T00:41:40.735Z,83.27
2018-09-14T00:42:40.736Z,82.65
2018-09-14T00:43:40.753Z,83.17
2018-09-14T00:44:40.698Z,82.92
2018-09-14T00:45:40.694Z,83.06
2018-09-14T00:46:40.755Z,82.31
2018-09-14T00:47:40.679Z,82.65
2018-09-14T00:48:40.661Z,82.96
2018-09-14T00:49:40.646Z,83.27
2018-09-14T00:50:40.635Z,82.86
2018-09-14T00:51:40.669Z,82.76
2018-09-14T00:52:40.628Z,83.33
2018-09-14T00:53:40.605Z,83.06
2018-09-14T00:54:40.596Z,81.73
2018-09-14T00:55:40.579Z,82.14
2018-09-14T00:56:40.583Z,82.55
2018-09-14T00:57:40.596Z,81.84
2018-09-14T00:58:40.564Z,82.45
2018-09-14T00:59:40.551Z,82.49
2018-09-14T01:00:40.529Z,82.65
2018-09-14T01:01:40.527Z,82.76
2018-09-14T01:02:40.513Z,83.27
2018-09-14T01:03:40.541Z,83.58
2018-09-14T01:04:40.499Z,83.68
2018-09-14T01:05:40.471Z,83.58
2018-09-14T01:06:40.459Z,82.65
2018-09-14T01:07:40.448Z,83.41
2018-09-14T01:08:40.453Z,82.69
2018-09-14T01:09:40.459Z,83.61
2018-09-14T01:10:40.431Z,83.10
2018-09-14T01:11:40.419Z,83.82
2018-09-14T01:12:40.400Z,83.92
2018-09-14T01:13:40.382Z,83.61
2018-09-14T01:14:40.371Z,83.88
2018-09-14T01:15:40.366Z,82.65
2018-09-14T01:16:40.391Z,83.51
2018-09-14T01:17:40.341Z,83.51
2018-09-14T01:18:40.345Z,83.00
2018-09-14T01:19:40.318Z,83.10
2018-09-14T01:20:40.322Z,83.20
2018-09-14T01:21:40.293Z,83.00
2018-09-14T01:22:40.305Z,82.79
2018-09-14T01:23:40.278Z,83.10
2018-09-14T01:24:40.293Z,83.10
2018-09-14T01:25:40.252Z,83.61
2018-09-14T01:26:40.245Z,84.44
2018-09-14T01:27:40.227Z,84.23
2018-09-14T01:28:40.218Z,84.44
2018-09-14T01:29:40.235Z,84.12
2018-09-14T01:30:40.227Z,84.12
2018-09-14T01:31:40.210Z,83.00
2018-09-14T01:32:40.172Z,83.51
2018-09-14T01:33:40.160Z,82.69
2018-09-14T01:34:40.150Z,82.69
2018-09-14T01:35:40.179Z,83.10
2018-09-14T01:36:40.158Z,83.00
2018-09-14T01:37:40.120Z,83.41
2018-09-14T01:38:40.115Z,82.69
2018-09-14T01:39:40.104Z,82.83
2018-09-14T01:40:40.106Z,82.73
2018-09-14T01:41:40.095Z,83.00
2018-09-14T01:42:40.066Z,83.14
2018-09-14T01:43:40.058Z,82.93
2018-09-14T01:44:40.040Z,83.25
2018-09-14T01:45:40.029Z,83.04
2018-09-14T01:46:40.081Z,82.53
2018-09-14T01:47:40.023Z,82.42
2018-09-14T01:48:40.012Z,82.73
2018-09-14T01:49:39.991Z,82.73
2018-09-14T01:50:40.016Z,82.26
2018-09-14T01:51:39.962Z,82.77
2018-09-14T01:52:39.948Z,82.97
2018-09-14T01:53:39.936Z,84.00
2018-09-14T01:54:39.950Z,83.90
2018-09-14T01:55:39.924Z,83.69
2018-09-14T01:56:39.952Z,83.80
2018-09-14T01:57:39.892Z,83.49
2018-09-14T01:58:39.883Z,84.52
2018-09-14T01:59:39.888Z,83.39
2018-09-14T02:00:39.873Z,82.97
2018-09-14T02:01:39.849Z,83.07
2018-09-14T02:02:39.837Z,83.80
2018-09-14T02:03:39.835Z,84.52
2018-09-14T02:04:39.850Z,84.61
2018-09-14T02:05:39.810Z,84.72
2018-09-14T02:06:39.816Z,84.41
2018-09-14T02:07:39.808Z,83.53
2018-09-14T02:08:39.781Z,83.80
2018-09-14T02:09:39.777Z,84.25
2018-09-14T02:10:39.748Z,84.45
2018-09-14T02:11:39.734Z,84.55
2018-09-14T02:12:39.732Z,83.42
2018-09-14T02:13:39.781Z,83.53
2018-09-14T02:14:39.701Z,83.94
2018-09-14T02:15:39.703Z,84.66
2018-09-14T02:16:39.679Z,84.04
2018-09-14T02:17:39.690Z,84.45
2018-09-14T02:18:39.659Z,84.66
2018-09-14T02:19:39.647Z,84.66
2018-09-14T02:20:39.678Z,84.04
2018-09-14T02:21:39.642Z,84.66
2018-09-14T02:22:39.617Z,84.86
2018-09-14T02:23:39.625Z,84.76
2018-09-14T02:24:39.587Z,84.45
2018-09-14T02:25:39.682Z,84.66
2018-09-14T02:26:39.595Z,83.94
2018-09-14T02:27:39.584Z,84.14
2018-09-14T02:28:39.550Z,84.66
2018-09-14T02:29:39.554Z,84.55
2018-09-14T02:30:39.536Z,84.34
2018-09-14T02:31:39.523Z,84.55
2018-09-14T02:32:39.822Z,84.25
2018-09-14T02:33:39.509Z,84.34
2018-09-14T02:34:39.509Z,84.34
2018-09-14T02:35:39.470Z,84.25
2018-09-14T02:36:39.459Z,84.45
2018-09-14T02:37:39.457Z,84.45
2018-09-14T02:38:39.451Z,84.25
2018-09-14T02:39:39.437Z,84.66
2018-09-14T02:40:39.413Z,84.25
2018-09-14T02:41:39.460Z,84.76
2018-09-14T02:42:39.391Z,84.86
2018-09-14T02:43:39.380Z,84.45
2018-09-14T02:44:39.387Z,83.87
2018-09-14T02:45:39.364Z,84.34
2018-09-14T02:46:39.381Z,83.22
2018-09-14T02:47:39.340Z,83.56
2018-09-14T02:48:39.320Z,83.63
2018-09-14T02:49:39.362Z,83.77
2018-09-14T02:50:39.312Z,83.26
2018-09-14T02:51:39.297Z,83.87
2018-09-14T02:52:39.286Z,84.90
2018-09-14T02:53:39.278Z,83.36
2018-09-14T02:54:39.292Z,84.18
2018-09-14T02:55:39.245Z,84.28
2018-09-14T02:56:39.261Z,83.87
2018-09-14T02:57:39.224Z,84.18
2018-09-14T02:58:39.217Z,84.08
2018-09-14T02:59:39.200Z,84.08
2018-09-14T03:00:39.252Z,83.77
2018-09-14T03:01:39.175Z,83.67
2018-09-14T03:02:39.183Z,83.77
2018-09-14T03:03:39.161Z,84.08
2018-09-14T03:04:39.142Z,84.49
2018-09-14T03:05:39.133Z,83.98
2018-09-14T03:06:39.122Z,84.80
2018-09-14T03:07:39.146Z,84.39
2018-09-14T03:08:39.126Z,83.77
2018-09-14T03:09:39.105Z,84.59
2018-09-14T03:10:39.099Z,84.49
2018-09-14T03:11:39.070Z,84.69
2018-09-14T03:12:39.056Z,84.84
2018-09-14T03:13:39.107Z,84.90
2018-09-14T03:14:39.076Z,84.49
2018-09-14T03:15:39.028Z,84.69
2018-09-14T03:16:39.023Z,84.69
2018-09-14T03:17:38.997Z,84.69
2018-09-14T03:18:38.990Z,84.84
2018-09-14T03:19:38.998Z,85.11
2018-09-14T03:20:38.985Z,85.00
2018-09-14T03:21:38.954Z,84.63
2018-09-14T03:22:38.947Z,84.74
2018-09-14T03:23:38.937Z,84.94
2018-09-14T03:24:38.925Z,84.42
2018-09-14T03:25:38.913Z,84.22
2018-09-14T03:26:38.920Z,84.74
2018-09-14T03:27:38.900Z,84.94
2018-09-14T03:28:38.885Z,85.35
2018-09-14T03:29:38.866Z,85.04
2018-09-14T03:30:38.872Z,85.25
2018-09-14T03:31:38.847Z,85.25
2018-09-14T03:32:38.911Z,85.04
2018-09-14T03:33:38.833Z,84.74
2018-09-14T03:34:38.831Z,84.94
2018-09-14T03:35:38.808Z,85.35
2018-09-14T03:36:38.793Z,85.14
2018-09-14T03:37:38.778Z,85.25
2018-09-14T03:38:38.779Z,84.94
2018-09-14T03:39:38.767Z,84.63
2018-09-14T03:40:38.783Z,85.14
2018-09-14T03:41:38.772Z,85.25
2018-09-14T03:42:38.719Z,85.25
2018-09-14T03:43:38.709Z,85.14
2018-09-14T03:44:38.719Z,85.04
2018-09-14T03:45:38.688Z,85.14
2018-09-14T03:46:38.679Z,85.66
2018-09-14T03:47:38.682Z,85.86
2018-09-14T03:48:38.701Z,85.46
2018-09-14T03:49:38.652Z,85.35
2018-09-14T03:50:38.636Z,84.74
2018-09-14T03:51:38.622Z,85.35
2018-09-14T03:52:38.616Z,85.66
2018-09-14T03:53:38.634Z,85.55
2018-09-14T03:54:38.591Z,86.00
2018-09-14T03:55:38.575Z,86.07
2018-09-14T03:56:38.589Z,86.58
2018-09-14T03:57:38.557Z,85.55
2018-09-14T03:58:38.556Z,85.25
2018-09-14T03:59:38.558Z,85.35
2018-09-14T04:00:38.525Z,85.25
2018-09-14T04:01:38.519Z,85.25
2018-09-14T04:02:38.543Z,85.14
2018-09-14T04:03:38.493Z,85.66
2018-09-14T04:04:38.487Z,85.55
2018-09-14T04:05:38.477Z,85.14
2018-09-14T04:06:47.793Z,85.35
2018-09-14T04:07:38.507Z,85.14
2018-09-14T04:08:38.467Z,85.14
2018-09-14T04:09:38.438Z,85.35
2018-09-14T04:10:38.435Z,84.74
2018-09-14T04:11:38.418Z,84.47
2018-09-14T04:12:38.404Z,85.39
2018-09-14T04:13:38.444Z,84.88
2018-09-14T04:14:38.388Z,84.67
2018-09-14T04:15:38.354Z,84.67
2018-09-14T04:16:47.316Z,84.36
2018-09-14T04:17:38.346Z,84.67
2018-09-14T04:18:46.160Z,84.88
2018-09-14T04:19:38.354Z,85.08
2018-09-14T04:20:38.369Z,84.56
2018-09-14T04:21:38.325Z,84.47
2018-09-14T04:22:38.294Z,84.36
2018-09-14T04:23:38.403Z,84.05
2018-09-14T04:24:38.270Z,84.88
2018-09-14T04:25:38.248Z,84.56
2018-09-14T04:26:38.233Z,84.47
2018-09-14T04:27:38.245Z,84.88
2018-09-14T04:28:38.261Z,84.36
2018-09-14T04:29:38.200Z,84.30
2018-09-14T04:30:38.186Z,84.50
2018-09-14T04:31:38.195Z,84.67
2018-09-14T04:32:38.167Z,85.02
2018-09-14T04:33:47.387Z,84.50
2018-09-14T04:34:38.177Z,84.50
2018-09-14T04:35:38.169Z,84.50
2018-09-14T04:36:47.407Z,84.50
2018-09-14T04:37:38.132Z,84.50
2018-09-14T04:38:38.180Z,85.22
2018-09-14T04:39:38.100Z,85.12
2018-09-14T04:40:38.080Z,84.81
2018-09-14T04:41:38.068Z,84.91
2018-09-14T04:42:38.111Z,83.99
2018-09-14T04:43:38.044Z,83.99
2018-09-14T04:44:38.057Z,84.09
2018-09-14T04:45:38.022Z,85.02
2018-09-14T04:46:38.106Z,84.91
2018-09-14T04:47:38.007Z,84.40
2018-09-14T04:48:38.007Z,85.02
2018-09-14T04:49:37.985Z,85.22
2018-09-14T04:50:37.977Z,85.22
2018-09-14T04:51:38.026Z,85.02
2018-09-14T04:52:37.962Z,84.61
2018-09-14T04:53:37.947Z,85.12
2018-09-14T04:54:37.982Z,85.12
2018-09-14T04:55:37.911Z,84.50
2018-09-14T04:56:37.908Z,85.22
2018-09-14T04:57:37.916Z,85.12
2018-09-14T04:58:37.879Z,85.33
2018-09-14T04:59:47.956Z,85.16
2018-09-14T05:00:37.866Z,85.26
2018-09-14T05:01:37.890Z,85.02
2018-09-14T05:02:37.838Z,85.36
2018-09-14T05:03:37.851Z,85.33
2018-09-14T05:04:37.857Z,85.43
2018-09-14T05:05:37.816Z,85.43
2018-09-14T05:06:37.793Z,85.22
2018-09-14T05:07:37.891Z,84.54
2018-09-14T05:08:37.773Z,85.02
2018-09-14T05:09:37.784Z,84.85
2018-09-14T05:10:37.748Z,84.23
2018-09-14T05:11:37.741Z,84.85
2018-09-14T05:12:37.760Z,85.16
2018-09-14T05:13:37.721Z,85.26
2018-09-14T05:14:37.710Z,84.85
2018-09-14T05:15:37.718Z,85.36
2018-09-14T05:16:37.694Z,85.16
2018-09-14T05:17:45.579Z,85.06
2018-09-14T05:18:37.686Z,86.70
2018-09-14T05:19:37.656Z,86.50
2018-09-14T05:20:37.681Z,86.60
2018-09-14T05:21:37.643Z,85.88
2018-09-14T05:22:37.625Z,85.98
2018-09-14T05:23:37.654Z,85.98
2018-09-14T05:24:37.665Z,85.16
2018-09-14T05:25:37.586Z,85.26
2018-09-14T05:26:37.603Z,84.75
2018-09-14T05:27:37.582Z,85.16
2018-09-14T05:28:37.548Z,85.16
2018-09-14T05:29:37.538Z,85.36
2018-09-14T05:30:37.526Z,85.57
2018-09-14T05:31:37.517Z,85.36
2018-09-14T05:32:37.508Z,85.98
2018-09-14T05:33:37.521Z,85.78
2018-09-14T05:34:37.488Z,85.16
2018-09-14T05:35:37.497Z,85.16
2018-09-14T05:36:45.054Z,85.78
2018-09-14T05:37:37.469Z,86.60
2018-09-14T05:38:37.453Z,86.29
2018-09-14T05:39:37.458Z,85.36
2018-09-14T05:40:37.472Z,85.63
2018-09-14T05:41:37.431Z,85.98
2018-09-14T05:42:37.438Z,86.19
2018-09-14T05:43:37.388Z,85.74
2018-09-14T05:44:37.375Z,86.05
2018-09-14T05:45:37.474Z,86.46
2018-09-14T05:46:37.380Z,87.07
2018-09-14T05:47:37.352Z,86.25
2018-09-14T05:48:37.329Z,86.05
2018-09-14T05:49:37.326Z,86.87
2018-09-14T05:50:37.322Z,86.46
2018-09-14T05:51:37.346Z,86.46
2018-09-14T05:52:37.283Z,86.05
2018-09-14T05:53:37.275Z,86.77
2018-09-14T05:54:37.359Z,86.46
2018-09-14T05:55:37.254Z,86.87
2018-09-14T05:56:37.242Z,87.18
2018-09-14T05:57:37.286Z,87.07
2018-09-14T05:58:37.223Z,86.77
2018-09-14T05:59:37.239Z,86.46
2018-09-14T06:00:37.220Z,86.66
2018-09-14T06:01:37.189Z,86.77
2018-09-14T06:02:37.174Z,86.97
2018-09-14T06:03:37.187Z,87.18
2018-09-14T06:04:37.153Z,87.45
2018-09-14T06:05:37.165Z,87.28
2018-09-14T06:06:37.186Z,87.34
2018-09-14T06:07:37.125Z,87.34
2018-09-14T06:08:37.110Z,87.34
2018-09-14T06:09:37.137Z,87.34
2018-09-14T06:10:37.110Z,87.34
2018-09-14T06:11:37.077Z,87.34
2018-09-14T06:12:37.087Z,87.13
2018-09-14T06:13:37.050Z,87.13
2018-09-14T06:14:37.049Z,87.20
2018-09-14T06:15:37.083Z,86.79
2018-09-14T06:16:37.018Z,87.20
2018-09-14T06:17:37.014Z,87.10
2018-09-14T06:18:37.026Z,87.67
2018-09-14T06:19:36.985Z,87.26
2018-09-14T06:20:36.974Z,87.46
2018-09-14T06:21:36.990Z,87.67
2018-09-14T06:22:36.986Z,87.77
2018-09-14T06:23:36.949Z,87.57
2018-09-14T06:24:36.964Z,87.57
2018-09-14T06:25:36.917Z,87.26
2018-09-14T06:26:36.959Z,87.57
2018-09-14T06:27:36.916Z,87.84
2018-09-14T06:28:36.892Z,87.98
2018-09-14T06:29:36.882Z,88.08
2018-09-14T06:30:36.863Z,87.73
2018-09-14T06:31:36.861Z,88.24
2018-09-14T06:32:36.839Z,87.22
2018-09-14T06:33:36.919Z,87.32
2018-09-14T06:34:36.818Z,87.59
2018-09-14T06:35:36.826Z,87.79
2018-09-14T06:36:36.795Z,87.90
2018-09-14T06:37:36.785Z,87.79
2018-09-14T06:38:36.773Z,88.21
2018-09-14T06:39:36.783Z,86.98
2018-09-14T06:40:36.762Z,87.49
2018-09-14T06:41:36.801Z,87.24
2018-09-14T06:42:36.727Z,87.24
2018-09-14T06:43:36.717Z,87.24
2018-09-14T06:44:36.710Z,87.14
2018-09-14T06:45:36.714Z,87.34
2018-09-14T06:46:36.693Z,87.65
2018-09-14T06:47:36.737Z,87.61
2018-09-14T06:48:36.666Z,88.23
2018-09-14T06:49:36.653Z,87.82
2018-09-14T06:50:36.639Z,88.74
2018-09-14T06:51:36.645Z,88.49
2018-09-14T06:52:36.626Z,88.49
2018-09-14T06:53:36.624Z,88.59
2018-09-14T06:54:36.596Z,88.59
2018-09-14T06:55:36.594Z,89.21
2018-09-14T06:56:36.571Z,88.59
2018-09-14T06:57:36.582Z,88.96
2018-09-14T06:58:36.552Z,88.56
2018-09-14T06:59:36.568Z,88.65
2018-09-14T07:00:36.532Z,88.92
2018-09-14T07:01:36.520Z,88.62
2018-09-14T07:02:36.505Z,88.62
2018-09-14T07:03:36.513Z,88.57
2018-09-14T07:04:36.481Z,88.37
2018-09-14T07:05:36.513Z,88.88
2018-09-14T07:06:36.466Z,88.57
2018-09-14T07:07:36.453Z,88.57
2018-09-14T07:08:36.443Z,88.78
2018-09-14T07:09:36.448Z,88.57
2018-09-14T07:10:36.416Z,88.43
2018-09-14T07:11:36.457Z,88.79
2018-09-14T07:12:36.402Z,87.67
2018-09-14T07:13:36.383Z,87.88
2018-09-14T07:14:36.436Z,87.88
2018-09-14T07:15:36.377Z,88.59
2018-09-14T07:16:36.368Z,88.18
2018-09-14T07:17:36.338Z,88.49
2018-09-14T07:18:36.340Z,87.37
2018-09-14T07:19:36.320Z,86.41
2018-09-14T07:20:36.357Z,86.71
2018-09-14T07:21:36.312Z,86.91
2018-09-14T07:22:36.290Z,86.67
2018-09-14T07:23:36.273Z,86.16
2018-09-14T07:24:36.400Z,85.45
2018-09-14T07:25:36.254Z,86.16
2018-09-14T07:26:36.262Z,85.35
2018-09-14T07:27:36.275Z,85.10
2018-09-14T07:28:36.241Z,86.22
2018-09-14T07:29:36.233Z,85.16
2018-09-14T07:30:36.245Z,85.92
2018-09-14T07:31:36.282Z,85.77
2018-09-14T07:32:36.231Z,85.16
2018-09-14T07:33:36.186Z,84.96
2018-09-14T07:34:36.153Z,83.94
2018-09-14T07:35:36.147Z,83.53
2018-09-14T07:36:36.177Z,83.73
2018-09-14T07:37:36.121Z,83.84
2018-09-14T07:38:36.163Z,84.11
2018-09-14T07:39:36.110Z,81.86
2018-09-14T07:40:36.088Z,81.45
2018-09-14T07:41:36.086Z,81.76
2018-09-14T07:42:36.176Z,80.50
2018-09-14T07:43:36.052Z,80.80
2018-09-14T07:44:36.041Z,81.17
2018-09-14T07:45:36.050Z,79.75
2018-09-14T07:46:36.060Z,76.90
2018-09-14T07:47:36.013Z,79.41
2018-09-14T07:48:35.996Z,78.22
2018-09-14T07:49:35.988Z,77.98
2018-09-14T07:50:35.976Z,77.98
2018-09-14T07:51:35.982Z,78.89
2018-09-14T07:52:35.971Z,78.86
2018-09-14T07:53:35.956Z,77.13
2018-09-14T07:54:35.929Z,75.98
2018-09-14T07:55:36.067Z,72.69
2018-09-14T07:56:35.907Z,73.30
2018-09-14T07:57:35.920Z,75.23
2018-09-14T07:58:35.890Z,73.26
2018-09-14T07:59:35.878Z,72.85
2018-09-14T08:00:35.866Z,75.09
2018-09-14T08:01:35.868Z,73.74
2018-09-14T08:02:35.866Z,74.44
2018-09-14T08:03:35.890Z,73.53
2018-09-14T08:04:35.857Z,74.10
2018-09-14T08:05:35.858Z,73.09
2018-09-14T08:06:35.837Z,73.39
2018-09-14T08:07:35.812Z,72.69
2018-09-14T08:08:35.792Z,72.14
2018-09-14T08:09:35.797Z,73.36
2018-09-14T08:10:35.804Z,72.14
2018-09-14T08:11:35.771Z,73.12
2018-09-14T08:12:35.764Z,73.53
2018-09-14T08:13:35.721Z,71.67
2018-09-14T08:14:35.724Z,72.28
2018-09-14T08:15:35.726Z,71.06
2018-09-14T08:16:35.697Z,71.13
2018-09-14T08:17:35.716Z,70.62
2018-09-14T08:18:35.697Z,69.71
2018-09-14T08:19:35.667Z,67.45
2018-09-14T08:20:35.674Z,67.52
2018-09-14T08:21:35.754Z,66.50
2018-09-14T08:22:35.643Z,69.04
2018-09-14T08:23:35.616Z,67.79
2018-09-14T08:24:35.607Z,65.87
2018-09-14T08:25:35.605Z,64.55
2018-09-14T08:26:35.600Z,64.96
2018-09-14T08:27:35.622Z,64.73
2018-09-14T08:28:35.567Z,66.24
2018-09-14T08:29:35.549Z,66.14
2018-09-14T08:30:35.559Z,64.93
2018-09-14T08:31:35.529Z,65.30
2018-09-14T08:32:35.535Z,66.41
2018-09-14T08:33:35.518Z,62.87
2018-09-14T08:34:35.496Z,62.87
2018-09-14T08:35:35.602Z,64.06
2018-09-14T08:36:35.476Z,62.64
2018-09-14T08:37:35.458Z,64.67
2018-09-14T08:38:35.468Z,60.69
2018-09-14T08:39:35.444Z,62.62
2018-09-14T08:40:35.433Z,64.40
2018-09-14T08:41:35.422Z,62.11
2018-09-14T08:42:35.402Z,62.82
2018-09-14T08:43:35.401Z,63.70
2018-09-14T08:44:35.431Z,61.30
2018-09-14T08:45:35.404Z,62.21
2018-09-14T08:46:35.370Z,62.59
2018-09-14T08:47:35.353Z,61.37
2018-09-14T08:48:35.385Z,62.79
2018-09-14T08:49:35.325Z,63.67
2018-09-14T08:50:35.318Z,63.96
2018-09-14T08:51:35.323Z,61.24
2018-09-14T08:52:35.297Z,60.94
2018-09-14T08:53:35.380Z,61.57
2018-09-14T08:54:35.277Z,60.33
2018-09-14T08:55:35.304Z,58.95
2018-09-14T08:56:35.249Z,59.83
2018-09-14T08:57:35.292Z,59.66
2018-09-14T08:58:35.259Z,59.66
2018-09-14T08:59:35.234Z,61.17
2018-09-14T09:00:35.335Z,61.95
2018-09-14T09:01:35.246Z,62.25
2018-09-14T09:02:35.182Z,60.94
2018-09-14T09:03:35.172Z,58.82
2018-09-14T09:04:35.159Z,59.12
2018-09-14T09:05:35.148Z,58.82
2018-09-14T09:06:35.157Z,58.01
2018-09-14T09:07:35.125Z,58.32
2018-09-14T09:08:35.156Z,56.81
2018-09-14T09:09:35.107Z,59.02
2018-09-14T09:10:35.099Z,58.92
2018-09-14T09:11:35.087Z,58.42
2018-09-14T09:12:35.094Z,59.83
2018-09-14T09:13:35.070Z,60.13
2018-09-14T09:14:35.046Z,60.03
2018-09-14T09:15:35.077Z,57.91
2018-09-14T09:16:35.045Z,56.30
2018-09-14T09:17:35.032Z,55.90
2018-09-14T09:18:35.039Z,57.10
2018-09-14T09:19:35.005Z,58.80
2018-09-14T09:20:35.058Z,55.16
2018-09-14T09:21:34.989Z,55.77
2018-09-14T09:22:34.966Z,55.26
2018-09-14T09:23:34.950Z,57.89
2018-09-14T09:24:35.023Z,59.00
2018-09-14T09:25:34.934Z,55.57
2018-09-14T09:26:34.921Z,56.37
2018-09-14T09:27:34.900Z,58.29
2018-09-14T09:28:34.935Z,57.18
2018-09-14T09:29:34.927Z,53.45
2018-09-14T09:30:34.893Z,54.16
2018-09-14T09:31:34.867Z,54.96
2018-09-14T09:32:34.854Z,57.28
2018-09-14T09:33:34.846Z,57.65
2018-09-14T09:34:34.847Z,53.55
2018-09-14T09:35:34.859Z,54.73
2018-09-14T09:36:34.828Z,53.72
2018-09-14T09:37:34.791Z,53.09
2018-09-14T09:38:34.788Z,55.71
2018-09-14T09:39:34.786Z,53.40
2018-09-14T09:40:34.765Z,53.88
2018-09-14T09:41:34.752Z,54.99
2018-09-14T09:42:34.768Z,55.39
2018-09-14T09:43:34.930Z,55.21
2018-09-14T09:44:34.757Z,56.02
2018-09-14T09:45:34.742Z,53.63
2018-09-14T09:46:34.699Z,55.06
2018-09-14T09:47:34.691Z,55.57
2018-09-14T09:48:34.689Z,55.59
2018-09-14T09:49:34.669Z,55.39
2018-09-14T09:50:34.659Z,55.59
2018-09-14T09:51:34.674Z,56.60
2018-09-14T09:52:34.641Z,55.01
2018-09-14T09:53:34.625Z,56.76
2018-09-14T09:54:34.622Z,55.65
2018-09-14T09:55:34.601Z,56.32
2018-09-14T09:56:34.636Z,56.81
2018-09-14T09:57:34.593Z,56.81
2018-09-14T09:58:34.598Z,55.57
2018-09-14T09:59:34.553Z,54.53
2018-09-14T10:00:34.563Z,55.04
2018-09-14T10:01:34.539Z,53.92
2018-09-14T10:02:34.528Z,53.63
2018-09-14T10:03:34.554Z,53.63
2018-09-14T10:04:34.497Z,53.55
2018-09-14T10:05:34.486Z,53.72
2018-09-14T10:06:34.476Z,52.44
2018-09-14T10:07:34.468Z,53.34
2018-09-14T10:08:34.450Z,53.55
2018-09-14T10:09:34.470Z,52.64
2018-09-14T10:10:34.467Z,53.88
2018-09-14T10:11:34.430Z,53.85
2018-09-14T10:12:34.417Z,53.32
2018-09-14T10:13:34.412Z,52.49
2018-09-14T10:14:34.380Z,51.66
2018-09-14T10:15:34.390Z,50.23
2018-09-14T10:16:34.358Z,51.71
2018-09-14T10:17:34.384Z,48.77
2018-09-14T10:18:34.349Z,49.77
2018-09-14T10:19:34.381Z,50.40
2018-09-14T10:20:34.324Z,50.91
2018-09-14T10:21:34.415Z,50.20
2018-09-14T10:22:34.302Z,49.48
2018-09-14T10:23:34.292Z,49.27
2018-09-14T10:24:34.291Z,49.77
2018-09-14T10:25:34.277Z,48.47
2018-09-14T10:26:34.292Z,49.70
2018-09-14T10:27:34.271Z,50.08
2018-09-14T10:28:34.226Z,50.18
2018-09-14T10:29:34.264Z,49.95
2018-09-14T10:30:34.220Z,49.13
2018-09-14T10:31:34.194Z,48.32
2018-09-14T10:32:34.188Z,48.63
2018-09-14T10:33:34.251Z,48.50
2018-09-14T10:34:34.203Z,47.70
2018-09-14T10:35:34.171Z,48.93
2018-09-14T10:36:34.149Z,50.41
2018-09-14T10:37:34.126Z,48.58
2018-09-14T10:38:34.170Z,48.68
2018-09-14T10:39:34.116Z,45.67
2018-09-14T10:40:34.117Z,45.47
2018-09-14T10:41:34.113Z,46.35
2018-09-14T10:42:34.095Z,46.35
2018-09-14T10:43:34.062Z,45.14
2018-09-14T10:44:34.052Z,46.75
2018-09-14T10:45:34.042Z,46.42
2018-09-14T10:46:34.026Z,45.45
2018-09-14T10:47:34.068Z,45.45
2018-09-14T10:48:34.023Z,46.35
2018-09-14T10:49:34.010Z,45.54
2018-09-14T10:50:34.005Z,45.32
2018-09-14T10:51:33.989Z,44.34
2018-09-14T10:52:33.974Z,45.25
2018-09-14T10:53:33.966Z,45.04
2018-09-14T10:54:33.974Z,45.14
2018-09-14T10:55:34.000Z,45.22
2018-09-14T10:56:33.916Z,46.42
2018-09-14T10:57:33.927Z,45.22
2018-09-14T10:58:33.937Z,45.02
2018-09-14T10:59:33.902Z,45.12
2018-09-14T11:00:33.874Z,46.42
2018-09-14T11:01:33.880Z,43.42
2018-09-14T11:02:33.862Z,45.25
2018-09-14T11:03:33.898Z,44.44
2018-09-14T11:04:33.947Z,45.04
2018-09-14T11:05:33.829Z,46.15
2018-09-14T11:06:33.836Z,45.22
2018-09-14T11:07:33.870Z,45.12
2018-09-14T11:08:33.786Z,45.72
2018-09-14T11:09:33.772Z,44.12
2018-09-14T11:10:33.782Z,44.62
2018-09-14T11:11:33.766Z,45.80
2018-09-14T11:12:33.846Z,45.10
2018-09-14T11:13:33.742Z,45.22
2018-09-14T11:14:33.734Z,47.91
2018-09-14T11:15:33.707Z,45.90
2018-09-14T11:16:33.699Z,45.00
2018-09-14T11:17:33.732Z,42.60
2018-09-14T11:18:33.704Z,44.20
2018-09-14T11:19:33.678Z,43.50
2018-09-14T11:20:33.728Z,44.30
2018-09-14T11:21:33.647Z,43.60
2018-09-14T11:22:33.640Z,44.00
2018-09-14T11:23:33.618Z,43.70
2018-09-14T11:24:33.653Z,44.50
2018-09-14T11:25:33.639Z,43.90
2018-09-14T11:26:33.592Z,43.80
2018-09-14T11:27:33.589Z,42.88
2018-09-14T11:28:33.573Z,42.90
2018-09-14T11:29:33.557Z,42.49
2018-09-14T11:30:33.598Z,41.69
2018-09-14T11:31:33.546Z,42.30
2018-09-14T11:32:33.549Z,43.10
2018-09-14T11:33:33.554Z,43.19
2018-09-14T11:34:33.502Z,43.48
2018-09-14T11:35:33.557Z,44.86
2018-09-14T11:36:33.476Z,42.55
2018-09-14T11:37:33.629Z,42.76
2018-09-14T11:38:33.593Z,41.07
2018-09-14T11:39:33.489Z,42.77
2018-09-14T11:40:33.433Z,41.67
2018-09-14T11:41:33.421Z,42.57
2018-09-14T11:42:33.424Z,42.76
2018-09-14T11:43:33.442Z,43.43
2018-09-14T11:44:33.427Z,42.63
2018-09-14T11:45:33.408Z,42.32
2018-09-14T11:46:33.387Z,40.71
2018-09-14T11:47:33.358Z,40.81
2018-09-14T11:48:33.359Z,40.99
2018-09-14T11:49:33.366Z,40.31
2018-09-14T11:50:33.329Z,42.69
2018-09-14T11:51:33.310Z,40.59
2018-09-14T11:52:33.301Z,40.22
2018-09-14T11:53:33.290Z,41.74
2018-09-14T11:54:33.281Z,41.25
2018-09-14T11:55:33.296Z,41.25
2018-09-14T11:56:33.256Z,41.88
2018-09-14T11:57:33.289Z,42.66
2018-09-14T11:58:33.259Z,40.75
2018-09-14T11:59:33.225Z,42.13
2018-09-14T12:00:33.229Z,40.52
2018-09-14T12:01:33.366Z,40.22
2018-09-14T12:02:33.212Z,41.13
2018-09-14T12:03:33.178Z,40.41
2018-09-14T12:04:33.174Z,40.52
2018-09-14T12:05:33.157Z,40.65
2018-09-14T12:06:33.173Z,42.35
2018-09-14T12:07:33.323Z,43.93
2018-09-14T12:08:33.125Z,42.24
2018-09-14T12:09:33.142Z,41.74
2018-09-14T12:10:33.105Z,41.53
2018-09-14T12:11:33.155Z,40.95
2018-09-14T12:12:33.107Z,41.93
2018-09-14T12:13:33.150Z,42.63
2018-09-14T12:14:33.068Z,43.71
2018-09-14T12:15:33.065Z,40.89
2018-09-14T12:16:33.033Z,40.13
2018-09-14T12:17:33.027Z,40.93
2018-09-14T12:18:33.059Z,40.91
2018-09-14T12:19:33.021Z,41.82
2018-09-14T12:20:33.009Z,39.01
2018-09-14T12:21:33.017Z,40.11
2018-09-14T12:22:32.978Z,39.83
2018-09-14T12:23:32.977Z,41.52
2018-09-14T12:24:33.032Z,41.71
2018-09-14T12:25:32.937Z,40.43
2018-09-14T12:26:32.935Z,40.33
2018-09-14T12:27:32.917Z,40.43
2018-09-14T12:28:32.902Z,41.52
2018-09-14T12:29:32.996Z,42.02
2018-09-14T12:30:32.909Z,40.11
2018-09-14T12:31:32.879Z,39.33
2018-09-14T12:32:32.856Z,40.13
2018-09-14T12:33:32.844Z,40.53
2018-09-14T12:34:32.839Z,39.93
2018-09-14T12:35:32.827Z,40.33
2018-09-14T12:36:32.873Z,41.33
2018-09-14T12:37:32.815Z,40.93
2018-09-14T12:38:32.830Z,40.45
2018-09-14T12:39:32.786Z,40.83
2018-09-14T12:40:32.780Z,40.83
2018-09-14T12:41:32.811Z,40.95
2018-09-14T12:42:32.753Z,40.55
2018-09-14T12:43:32.738Z,41.75
2018-09-14T12:44:32.782Z,41.43
2018-09-14T12:45:32.760Z,40.83
2018-09-14T12:46:32.701Z,41.24
2018-09-14T12:47:32.719Z,41.02
2018-09-14T12:48:32.722Z,42.02
2018-09-14T12:49:32.669Z,40.71
2018-09-14T12:50:32.780Z,41.05
2018-09-14T12:51:32.653Z,41.15
2018-09-14T12:52:32.644Z,41.83